Pride — WDE9046 — position and weather

sailwx.info

Track history (hours):
 
Tides and Currents Weather Stations Pressure Air Temp Water Temp Dewpoint Dewpoint Depression Visibility Wind Speed Wind Dir Waves Ship Positions

Pride

Owner: Intrepid Ship Management, Jacksonville, FL. More information available from US FCC via Universal Licensing System and Coast Guard Vessel Documentation Center.

Last reported at 2017-Oct-18 09:31 UTC. Time now 2017-Oct-18 09:41 UTC.
Position N 46°10' W 123°25'.

Length 209 m; draft 8.9 m.

Type: Towing. MMSI: 366341000.

Date/timePositionNaut miles runAvg speedWind from/ knotsBaromVisibWave heightAir tempDewpointWater temp
2017-Oct-18 09:31N 46°10' W 123°25'710.4
2017-Oct-18 08:48N 46°16' W 123°30'612.6
2017-Oct-18 08:18N 46°16' W 123°39'412.6
2017-Oct-18 08:01N 46°14' W 123°44'510.8
2017-Oct-18 07:31N 46°12' W 123°51'612.1
2017-Oct-18 07:01N 46°14' W 123°59'611.5
2017-Oct-18 06:30N 46°14' W 124°07'711.0
2017-Oct-18 05:51N 46°14' W 124°18'411.2
2017-Oct-18 05:30N 46°16' W 124°23'511.0
2017-Oct-18 05:00N 46°19' W 124°29'611.1
2017-Oct-18 04:30N 46°24' W 124°33'611.4
2017-Oct-18 04:00N 46°29' W 124°37'5 9.5
2017-Oct-18 03:30N 46°34' W 124°39'611.6
2017-Oct-18 03:00N 46°39' W 124°42'611.5
2017-Oct-18 02:30N 46°44' W 124°46'611.5
2017-Oct-18 02:00N 46°50' W 124°49'611.4
2017-Oct-18 01:30N 46°55' W 124°52'7511.2
2017-Oct-17 18:48N 48°08' W 125°20'611.6
2017-Oct-17 18:19N 48°13' W 125°17'411.5
2017-Oct-17 18:00N 48°16' W 125°14'611.2
2017-Oct-17 17:30N 48°21' W 125°10'611.5
2017-Oct-17 17:00N 48°26' W 125°06'510.5
2017-Oct-17 16:30N 48°31' W 125°03'510.5
2017-Oct-17 16:00N 48°31' W 124°55'510.7
2017-Oct-17 15:30N 48°31' W 124°47'510.4
2017-Oct-17 15:00N 48°29' W 124°39'511.1
2017-Oct-17 14:30N 48°27' W 124°31'612.0
2017-Oct-17 14:00N 48°25' W 124°23'612.8
2017-Oct-17 13:30N 48°23' W 124°14'713.1
2017-Oct-17 13:00N 48°20' W 124°05'713.2
2017-Oct-17 12:30N 48°17' W 123°56'713.3
2017-Oct-17 11:58N 48°16' W 123°45'612.7
2017-Oct-17 11:30N 48°16' W 123°36'611.7
2017-Oct-17 11:00N 48°14' W 123°28'611.8
2017-Oct-17 10:29N 48°09' W 123°23'510.1
2017-Oct-17 10:00N 48°11' W 123°17'612.0
2017-Oct-17 09:29N 48°15' W 123°10'612.1
2017-Oct-17 09:00N 48°18' W 123°03'611.5
2017-Oct-17 08:30N 48°22' W 122°55'611.5
2017-Oct-17 08:00N 48°25' W 122°48'611.5
2017-Oct-17 07:30N 48°30' W 122°44'611.8
2017-Oct-17 07:00N 48°36' W 122°45'611.9
2017-Oct-17 06:30N 48°42' W 122°44'612.6
2017-Oct-17 06:00N 48°48' W 122°46'4 5.7
2017-Oct-17 05:22N 48°52' W 122°46'0 0.0
2017-Oct-16 14:39N 48°52' W 122°46'0 0.0
2017-Oct-16 14:27N 48°52' W 122°46'0 0.0
2017-Oct-16 13:27N 48°52' W 122°46'0 0.0
2017-Oct-16 11:51N 48°52' W 122°46'0 0.0
2017-Oct-16 11:27N 48°52' W 122°46'0 0.0
2017-Oct-16 10:57N 48°52' W 122°46'0 0.0
2017-Oct-16 10:21N 48°52' W 122°46'0 0.0
2017-Oct-16 08:34N 48°52' W 122°46'0 0.0
2017-Oct-16 08:27N 48°52' W 122°46'0 0.0
2017-Oct-16 07:51N 48°52' W 122°46'0 0.0
2017-Oct-16 02:33N 48°52' W 122°46'0 0.0
2017-Oct-16 02:21N 48°52' W 122°46'0 0.0
2017-Oct-16 01:57N 48°52' W 122°46'1 2.5
2017-Oct-16 01:27N 48°50' W 122°45'510.9
2017-Oct-16 01:00N 48°46' W 122°45'612.2
2017-Oct-16 00:30N 48°40' W 122°43'611.3
2017-Oct-16 00:00N 48°34' W 122°45'612.8
2017-Oct-15 23:30N 48°28' W 122°44'612.9
2017-Oct-15 23:00N 48°21' W 122°45'612.5
2017-Oct-15 22:30N 48°15' W 122°47'611.3
2017-Oct-15 21:56N 48°10' W 122°43'611.7
2017-Oct-15 21:28N 48°05' W 122°39'611.8
2017-Oct-15 21:00N 47°60' W 122°36'611.4
2017-Oct-15 20:30N 47°56' W 122°30'612.2
2017-Oct-15 20:00N 47°50' W 122°27'612.7
2017-Oct-15 19:30N 47°44' W 122°26'611.7
2017-Oct-15 19:00N 47°38' W 122°26'4 8.1
2017-Oct-15 18:30N 47°34' W 122°26'612.2
2017-Oct-15 18:00N 47°28' W 122°24'611.4
2017-Oct-15 17:30N 47°22' W 122°22'611.2
2017-Oct-15 17:00N 47°18' W 122°27'2 3.9
2017-Oct-15 16:30N 47°17' W 122°24'0 0.8
2017-Oct-15 15:58N 47°17' W 122°23'0 0.0
2017-Oct-15 15:28N 47°17' W 122°23'0 0.0
2017-Oct-15 14:58N 47°17' W 122°23'0 0.0
2017-Oct-15 13:58N 47°17' W 122°23'0 0.0
2017-Oct-15 13:28N 47°17' W 122°23'0 0.0
2017-Oct-15 12:58N 47°17' W 122°23'0 0.0
2017-Oct-15 12:28N 47°17' W 122°23'0 0.0
2017-Oct-15 11:58N 47°17' W 122°23'0 0.0
2017-Oct-15 11:28N 47°17' W 122°23'0 0.0
2017-Oct-15 10:58N 47°17' W 122°23'0 0.0
2017-Oct-15 10:28N 47°17' W 122°23'0 0.0
2017-Oct-15 09:58N 47°17' W 122°23'0 0.0
2017-Oct-15 09:28N 47°17' W 122°23'0 0.0
2017-Oct-15 08:58N 47°17' W 122°23'0 0.0
2017-Oct-15 08:28N 47°17' W 122°23'0 0.0
2017-Oct-15 07:58N 47°17' W 122°23'0 0.0
2017-Oct-15 07:28N 47°17' W 122°23'0 0.0
2017-Oct-15 06:58N 47°17' W 122°23'0 0.0
2017-Oct-15 06:28N 47°17' W 122°23'0 0.0
2017-Oct-15 05:58N 47°17' W 122°23'0 0.0
2017-Oct-15 05:28N 47°17' W 122°23'0 0.0
2017-Oct-15 04:58N 47°17' W 122°23'0 0.0
2017-Oct-15 04:28N 47°17' W 122°23'0 0.0
2017-Oct-15 03:58N 47°17' W 122°23'0 0.0
2017-Oct-15 03:28N 47°17' W 122°23'0 0.0
2017-Oct-15 02:58N 47°17' W 122°23'0 0.0
2017-Oct-15 02:28N 47°17' W 122°23'0 0.0
2017-Oct-15 01:58N 47°17' W 122°23'0 0.0
2017-Oct-15 01:28N 47°17' W 122°23'0 0.0
2017-Oct-15 00:58N 47°17' W 122°23'0 0.0
2017-Oct-15 00:28N 47°17' W 122°23'0 0.0
2017-Oct-14 23:58N 47°17' W 122°23'0 0.0
2017-Oct-14 23:28N 47°17' W 122°23'0 0.0
2017-Oct-14 22:58N 47°17' W 122°23'0 0.0
2017-Oct-14 22:30N 47°17' W 122°23'1 1.7
2017-Oct-14 22:00N 47°17' W 122°24'3 5.2
2017-Oct-14 21:30N 47°18' W 122°28'611.8
2017-Oct-14 21:00N 47°23' W 122°22'612.4
2017-Oct-14 20:30N 47°29' W 122°25'612.3
2017-Oct-14 20:00N 47°35' W 122°26'3 5.5
2017-Oct-14 19:28N 47°36' W 122°22'0 0.2
2017-Oct-14 18:58N 47°36' W 122°22'0 0.1
2017-Oct-14 18:28N 47°36' W 122°22'0 0.0
2017-Oct-14 17:58N 47°36' W 122°22'0 0.1
2017-Oct-14 17:28N 47°36' W 122°22'0 0.1
2017-Oct-14 16:58N 47°36' W 122°22'0 0.0
2017-Oct-14 16:28N 47°36' W 122°22'0 0.1
2017-Oct-14 15:58N 47°36' W 122°22'0 0.1
2017-Oct-14 15:28N 47°36' W 122°22'0 0.0
2017-Oct-14 14:58N 47°36' W 122°22'0 0.0
2017-Oct-14 14:28N 47°36' W 122°22'0 0.0
2017-Oct-14 13:58N 47°36' W 122°22'0 0.1
2017-Oct-14 13:28N 47°36' W 122°22'0 0.0
2017-Oct-14 12:58N 47°36' W 122°22'0 0.0
2017-Oct-14 12:28N 47°36' W 122°22'0 0.0
2017-Oct-14 11:58N 47°36' W 122°22'1 1.6
2017-Oct-14 11:30N 47°36' W 122°23'5 9.6
2017-Oct-14 11:00N 47°40' W 122°28'611.7
2017-Oct-14 10:30N 47°46' W 122°27'611.8
2017-Oct-14 10:00N 47°52' W 122°29'510.8
2017-Oct-14 09:30N 47°56' W 122°32'511.0
2017-Oct-14 09:00N 48°01' W 122°38'611.3
2017-Oct-14 08:30N 48°06' W 122°40'511.0
2017-Oct-14 08:00N 48°10' W 122°46'611.6
2017-Oct-14 07:30N 48°11' W 122°54'612.4
2017-Oct-14 07:00N 48°12' W 123°04'612.4
2017-Oct-14 06:30N 48°12' W 123°13'612.4
2017-Oct-14 06:00N 48°10' W 123°22'611.4
2017-Oct-14 05:30N 48°12' W 123°30'611.5
2017-Oct-14 05:00N 48°13' W 123°39'612.3
2017-Oct-14 04:30N 48°13' W 123°48'612.7
2017-Oct-14 04:00N 48°14' W 123°58'612.7
2017-Oct-14 03:30N 48°16' W 124°06'612.6
2017-Oct-14 03:00N 48°19' W 124°15'612.0
2017-Oct-14 02:30N 48°22' W 124°23'611.5
2017-Oct-14 02:00N 48°24' W 124°31'911.4
2017-Oct-14 01:12N 48°28' W 124°43'312.6
2017-Oct-14 01:00N 48°28' W 124°47'712.2
2017-Oct-14 00:27N 48°29' W 124°57'510.6
2017-Oct-13 23:59N 48°25' W 125°03'612.1
2017-Oct-13 23:28N 48°20' W 125°07'78 9.9
2017-Oct-13 15:36N 47°02' W 124°57'211.2
2017-Oct-13 15:24N 46°60' W 124°56'411.0
2017-Oct-13 15:00N 46°56' W 124°53'611.0
2017-Oct-13 14:30N 46°51' W 124°50'710.8
2017-Oct-13 13:51N 46°45' W 124°45'411.1
2017-Oct-13 13:30N 46°41' W 124°43'811.0
2017-Oct-13 12:49N 46°34' W 124°39'411.1
2017-Oct-13 12:30N 46°31' W 124°37'610.9
2017-Oct-13 11:56N 46°25' W 124°34'510.8
2017-Oct-13 11:30N 46°21' W 124°32'510.7
2017-Oct-13 11:00N 46°17' W 124°25'611.9
2017-Oct-13 10:30N 46°14' W 124°18'611.4
2017-Oct-13 10:00N 46°12' W 124°11'810.5
2017-Oct-13 09:15N 46°15' W 123°60'415.3
2017-Oct-13 09:00N 46°12' W 123°56'611.2
2017-Oct-13 08:31N 46°12' W 123°48'914.2
2017-Oct-13 07:53N 46°15' W 123°36'513.8
2017-Oct-13 07:30N 46°16' W 123°28'612.6
2017-Oct-13 06:59N 46°10' W 123°25'612.4
2017-Oct-13 06:31N 46°09' W 123°17'712.4
2017-Oct-13 05:56N 46°11' W 123°06'512.6
2017-Oct-13 05:30N 46°08' W 123°00'611.8
2017-Oct-13 05:00N 46°04' W 122°53'611.8
2017-Oct-13 04:30N 45°59' W 122°50'611.5
2017-Oct-13 04:00N 45°53' W 122°48'611.8
2017-Oct-13 03:30N 45°47' W 122°47'612.6
2017-Oct-13 03:01N 45°41' W 122°46'5 8.3
2017-Oct-13 02:21N 45°36' W 122°47'0 0.0
2017-Oct-13 02:00N 45°36' W 122°47'0 0.0
2017-Oct-13 01:29N 45°36' W 122°47'0 0.0
2017-Oct-13 00:59N 45°36' W 122°47'0 0.0
2017-Oct-13 00:26N 45°36' W 122°47'0 0.0
2017-Oct-12 23:59N 45°36' W 122°47'0 0.0
2017-Oct-12 23:29N 45°36' W 122°47'0 0.0
2017-Oct-12 22:56N 45°36' W 122°47'0 0.0
2017-Oct-12 22:29N 45°36' W 122°47'0 0.0
2017-Oct-12 21:53N 45°36' W 122°47'0 0.0
2017-Oct-12 21:29N 45°36' W 122°47'0 0.0
2017-Oct-12 20:50N 45°36' W 122°47'0 0.0
2017-Oct-12 20:29N 45°36' W 122°47'0 0.0
2017-Oct-12 19:59N 45°36' W 122°47'0 0.0
2017-Oct-12 19:26N 45°36' W 122°47'0 0.0
2017-Oct-12 18:56N 45°36' W 122°47'0 0.0
2017-Oct-12 18:29N 45°36' W 122°47'0 0.0
2017-Oct-12 18:00N 45°36' W 122°47'0 0.0
2017-Oct-12 17:29N 45°36' W 122°47'0 0.0
2017-Oct-12 16:50N 45°36' W 122°47'0 0.0
2017-Oct-12 16:29N 45°36' W 122°47'0 0.0
2017-Oct-12 15:56N 45°36' W 122°47'0 0.0
2017-Oct-12 15:23N 45°36' W 122°47'0 0.0
2017-Oct-12 14:59N 45°36' W 122°47'0 0.0
2017-Oct-12 14:29N 45°36' W 122°47'0 0.0
2017-Oct-12 13:47N 45°36' W 122°47'0 0.0
2017-Oct-12 13:29N 45°36' W 122°47'0 0.0
2017-Oct-12 12:47N 45°36' W 122°47'0 0.0
2017-Oct-12 12:26N 45°36' W 122°47'0 0.0
2017-Oct-12 11:53N 45°36' W 122°47'0 0.6
2017-Oct-12 11:30N 45°35' W 122°46'2 3.7
2017-Oct-12 10:57N 45°34' W 122°44'0 0.0
2017-Oct-12 10:30N 45°34' W 122°44'0 0.0
2017-Oct-12 09:51N 45°34' W 122°44'0 0.0
2017-Oct-12 09:27N 45°34' W 122°44'0 0.0
2017-Oct-12 08:51N 45°34' W 122°44'0 0.0
2017-Oct-12 08:30N 45°34' W 122°44'0 0.0
2017-Oct-12 07:42N 45°34' W 122°44'0 0.0
2017-Oct-12 07:30N 45°34' W 122°44'0 0.0
2017-Oct-12 07:00N 45°34' W 122°44'0 0.0
2017-Oct-12 06:30N 45°34' W 122°44'0 0.0
2017-Oct-12 05:57N 45°34' W 122°44'0 0.0
2017-Oct-12 05:24N 45°34' W 122°44'0 0.0
2017-Oct-12 05:00N 45°34' W 122°44'0 0.0
2017-Oct-12 04:21N 45°34' W 122°44'0 0.0
2017-Oct-12 03:57N 45°34' W 122°44'0 0.0
2017-Oct-12 03:30N 45°34' W 122°44'0 0.0
2017-Oct-12 02:57N 45°34' W 122°44'0 0.0
2017-Oct-12 02:24N 45°34' W 122°44'0 0.0
2017-Oct-12 01:53N 45°34' W 122°44'0 0.0
2017-Oct-12 01:30N 45°34' W 122°44'0 0.0
2017-Oct-12 01:00N 45°34' W 122°44'0 0.0
2017-Oct-12 00:03N 45°34' W 122°44'0 0.0
2017-Oct-11 23:48N 45°34' W 122°44'0 0.0
2017-Oct-11 23:18N 45°34' W 122°44'0 0.0
2017-Oct-11 23:00N 45°34' W 122°44'0 0.0
2017-Oct-11 21:54N 45°34' W 122°44'0 0.0
2017-Oct-11 21:30N 45°34' W 122°44'0 0.0
2017-Oct-11 21:00N 45°34' W 122°44'0 0.3
2017-Oct-11 20:30N 45°34' W 122°44'1 1.3
2017-Oct-11 20:01N 45°35' W 122°45'4 8.2
2017-Oct-11 19:30N 45°38' W 122°47'5 9.4
2017-Oct-11 19:01N 45°43' W 122°46'510.4
2017-Oct-11 18:30N 45°48' W 122°47'510.5
2017-Oct-11 18:00N 45°53' W 122°48'510.9
2017-Oct-11 17:30N 45°59' W 122°50'510.5
2017-Oct-11 17:00N 46°04' W 122°53'164 9.6
2017-Oct-10 23:56N 48°16' W 125°14'512.0
2017-Oct-10 23:30N 48°21' W 125°11'711.8
2017-Oct-10 22:57N 48°26' W 125°06'510.9
2017-Oct-10 22:30N 48°30' W 125°01'510.3
2017-Oct-10 22:00N 48°31' W 124°54'510.6
2017-Oct-10 21:30N 48°31' W 124°46'611.4
2017-Oct-10 21:00N 48°29' W 124°37'611.8
2017-Oct-10 20:30N 48°27' W 124°29'611.8
2017-Oct-10 20:00N 48°24' W 124°21'5 9.2
2017-Oct-10 19:30N 48°23' W 124°15'510.3
2017-Oct-10 19:00N 48°20' W 124°08'712.9
2017-Oct-10 18:30N 48°18' W 123°59'713.0
2017-Oct-10 17:58N 48°16' W 123°48'712.8
2017-Oct-10 17:27N 48°15' W 123°39'511.9
2017-Oct-10 17:00N 48°14' W 123°31'611.8
2017-Oct-10 16:30N 48°11' W 123°23'4 8.0
2017-Oct-10 16:00N 48°11' W 123°17'711.7
2017-Oct-10 15:26N 48°15' W 123°09'511.4
2017-Oct-10 15:00N 48°18' W 123°03'1111.1
2017-Oct-10 14:00N 48°24' W 122°50'5 9.3
2017-Oct-10 13:30N 48°28' W 122°45'5 9.2
2017-Oct-10 13:00N 48°31' W 122°41'4 7.7
2017-Oct-10 12:30N 48°31' W 122°35'0 0.2
2017-Oct-10 11:57N 48°31' W 122°35'0 0.3
2017-Oct-10 11:30N 48°31' W 122°35'0 0.2
2017-Oct-10 11:00N 48°31' W 122°35'0 0.1
2017-Oct-10 10:31N 48°31' W 122°35'0 0.0
2017-Oct-10 10:00N 48°31' W 122°35'0 0.0
2017-Oct-10 09:31N 48°31' W 122°35'0 0.0
2017-Oct-10 09:01N 48°31' W 122°35'0 0.0
2017-Oct-10 08:27N 48°31' W 122°35'0 0.0
2017-Oct-10 08:01N 48°31' W 122°35'0 0.0
2017-Oct-10 07:27N 48°31' W 122°35'0 0.0
2017-Oct-10 07:01N 48°31' W 122°35'0 0.0
2017-Oct-10 06:28N 48°31' W 122°35'0 0.0
2017-Oct-10 06:00N 48°31' W 122°35'0 0.0
2017-Oct-10 05:30N 48°31' W 122°35'0 0.0
2017-Oct-10 04:57N 48°31' W 122°35'0 0.0
2017-Oct-10 04:31N 48°31' W 122°35'0 0.0
2017-Oct-10 04:01N 48°31' W 122°35'0 0.1
2017-Oct-10 03:30N 48°31' W 122°35'0 0.0
2017-Oct-10 03:00N 48°31' W 122°35'0 0.1
2017-Oct-10 02:30N 48°31' W 122°35'0 0.2
2017-Oct-10 02:00N 48°31' W 122°35'0 0.2
2017-Oct-10 01:30N 48°31' W 122°35'0 0.1
2017-Oct-10 01:00N 48°31' W 122°35'0 0.3
2017-Oct-10 00:30N 48°31' W 122°35'3 6.7
2017-Oct-10 00:01N 48°35' W 122°35'4 8.9
2017-Oct-09 23:30N 48°38' W 122°39'611.6
2017-Oct-09 23:00N 48°43' W 122°44'612.5
2017-Oct-09 22:31N 48°49' W 122°46'3 5.3
2017-Oct-09 21:59N 48°52' W 122°46'0 0.0
2017-Oct-09 17:20N 48°52' W 122°46'0 0.0
2017-Oct-09 16:56N 48°52' W 122°46'0 0.0
2017-Oct-09 08:02N 48°52' W 122°46'0 0.0
2017-Oct-09 07:44N 48°52' W 122°46'0 0.0
2017-Oct-09 07:20N 48°52' W 122°46'0 0.0
2017-Oct-09 06:50N 48°52' W 122°46'0 0.0
2017-Oct-09 06:26N 48°52' W 122°46'0 0.0
2017-Oct-09 05:56N 48°52' W 122°46'0 0.0
2017-Oct-09 05:26N 48°52' W 122°46'0 0.0
2017-Oct-09 04:56N 48°52' W 122°46'0 0.0
2017-Oct-09 04:20N 48°52' W 122°46'0 0.0
2017-Oct-09 02:53N 48°52' W 122°46'0 0.0
2017-Oct-09 02:29N 48°52' W 122°46'0 0.0
2017-Oct-09 01:44N 48°52' W 122°46'0 0.0
2017-Oct-09 01:26N 48°52' W 122°46'0 0.0
2017-Oct-09 00:50N 48°52' W 122°46'0 0.0
2017-Oct-09 00:29N 48°52' W 122°46'0 0.0
2017-Oct-08 23:59N 48°52' W 122°46'0 0.0
2017-Oct-08 23:26N 48°52' W 122°46'0 0.0
2017-Oct-08 22:56N 48°52' W 122°46'0 0.0
2017-Oct-08 22:14N 48°52' W 122°46'0 0.0
2017-Oct-08 21:56N 48°52' W 122°46'0 0.0
2017-Oct-08 21:17N 48°52' W 122°46'0 0.0
2017-Oct-08 19:08N 48°52' W 122°46'0 0.0
2017-Oct-08 18:56N 48°52' W 122°46'0 0.0
2017-Oct-08 14:50N 48°52' W 122°46'0 0.0
2017-Oct-08 14:20N 48°52' W 122°46'0 0.0
2017-Oct-08 12:50N 48°52' W 122°46'0 0.0
2017-Oct-08 11:11N 48°52' W 122°46'0 1.0
2017-Oct-08 11:00N 48°52' W 122°46'4 7.3
2017-Oct-08 10:30N 48°48' W 122°45'713.1
2017-Oct-08 10:00N 48°42' W 122°44'  
Track history (hours):
 
Tides and Currents Weather Stations Pressure Air Temp Water Temp Dewpoint Dewpoint Depression Visibility Wind Speed Wind Dir Waves Ship Positions

Pride

Owner: Intrepid Ship Management, Jacksonville, FL. More information available from US FCC via Universal Licensing System and Coast Guard Vessel Documentation Center.

Last reported at 2017-Oct-18 09:31 UTC. Time now 2017-Oct-18 09:41 UTC.
Position N 46°10' W 123°25'.

Length 209 m; draft 8.9 m.

Type: Towing. MMSI: 366341000.

Date/timePositionNaut miles runAvg speedWind from/ knotsBaromVisibWave heightAir tempDewpointWater temp
2017-Oct-18 09:31N 46°10' W 123°25'710.4
2017-Oct-18 08:48N 46°16' W 123°30'612.6
2017-Oct-18 08:18N 46°16' W 123°39'412.6
2017-Oct-18 08:01N 46°14' W 123°44'510.8
2017-Oct-18 07:31N 46°12' W 123°51'612.1
2017-Oct-18 07:01N 46°14' W 123°59'611.5
2017-Oct-18 06:30N 46°14' W 124°07'711.0
2017-Oct-18 05:51N 46°14' W 124°18'411.2
2017-Oct-18 05:30N 46°16' W 124°23'511.0
2017-Oct-18 05:00N 46°19' W 124°29'611.1
2017-Oct-18 04:30N 46°24' W 124°33'611.4
2017-Oct-18 04:00N 46°29' W 124°37'5 9.5
2017-Oct-18 03:30N 46°34' W 124°39'611.6
2017-Oct-18 03:00N 46°39' W 124°42'611.5
2017-Oct-18 02:30N 46°44' W 124°46'611.5
2017-Oct-18 02:00N 46°50' W 124°49'611.4
2017-Oct-18 01:30N 46°55' W 124°52'7511.2
2017-Oct-17 18:48N 48°08' W 125°20'611.6
2017-Oct-17 18:19N 48°13' W 125°17'411.5
2017-Oct-17 18:00N 48°16' W 125°14'611.2
2017-Oct-17 17:30N 48°21' W 125°10'611.5
2017-Oct-17 17:00N 48°26' W 125°06'510.5
2017-Oct-17 16:30N 48°31' W 125°03'510.5
2017-Oct-17 16:00N 48°31' W 124°55'510.7
2017-Oct-17 15:30N 48°31' W 124°47'510.4
2017-Oct-17 15:00N 48°29' W 124°39'511.1
2017-Oct-17 14:30N 48°27' W 124°31'612.0
2017-Oct-17 14:00N 48°25' W 124°23'612.8
2017-Oct-17 13:30N 48°23' W 124°14'713.1
2017-Oct-17 13:00N 48°20' W 124°05'713.2
2017-Oct-17 12:30N 48°17' W 123°56'713.3
2017-Oct-17 11:58N 48°16' W 123°45'612.7
2017-Oct-17 11:30N 48°16' W 123°36'611.7
2017-Oct-17 11:00N 48°14' W 123°28'611.8
2017-Oct-17 10:29N 48°09' W 123°23'510.1
2017-Oct-17 10:00N 48°11' W 123°17'612.0
2017-Oct-17 09:29N 48°15' W 123°10'612.1
2017-Oct-17 09:00N 48°18' W 123°03'611.5
2017-Oct-17 08:30N 48°22' W 122°55'611.5
2017-Oct-17 08:00N 48°25' W 122°48'611.5
2017-Oct-17 07:30N 48°30' W 122°44'611.8
2017-Oct-17 07:00N 48°36' W 122°45'611.9
2017-Oct-17 06:30N 48°42' W 122°44'612.6
2017-Oct-17 06:00N 48°48' W 122°46'4 5.7
2017-Oct-17 05:22N 48°52' W 122°46'0 0.0
2017-Oct-16 14:39N 48°52' W 122°46'0 0.0
2017-Oct-16 14:27N 48°52' W 122°46'0 0.0
2017-Oct-16 13:27N 48°52' W 122°46'0 0.0
2017-Oct-16 11:51N 48°52' W 122°46'0 0.0
2017-Oct-16 11:27N 48°52' W 122°46'0 0.0
2017-Oct-16 10:57N 48°52' W 122°46'0 0.0
2017-Oct-16 10:21N 48°52' W 122°46'0 0.0
2017-Oct-16 08:34N 48°52' W 122°46'0 0.0
2017-Oct-16 08:27N 48°52' W 122°46'0 0.0
2017-Oct-16 07:51N 48°52' W 122°46'0 0.0
2017-Oct-16 02:33N 48°52' W 122°46'0 0.0
2017-Oct-16 02:21N 48°52' W 122°46'0 0.0
2017-Oct-16 01:57N 48°52' W 122°46'1 2.5
2017-Oct-16 01:27N 48°50' W 122°45'510.9
2017-Oct-16 01:00N 48°46' W 122°45'612.2
2017-Oct-16 00:30N 48°40' W 122°43'611.3
2017-Oct-16 00:00N 48°34' W 122°45'612.8
2017-Oct-15 23:30N 48°28' W 122°44'612.9
2017-Oct-15 23:00N 48°21' W 122°45'612.5
2017-Oct-15 22:30N 48°15' W 122°47'611.3
2017-Oct-15 21:56N 48°10' W 122°43'611.7
2017-Oct-15 21:28N 48°05' W 122°39'611.8
2017-Oct-15 21:00N 47°60' W 122°36'611.4
2017-Oct-15 20:30N 47°56' W 122°30'612.2
2017-Oct-15 20:00N 47°50' W 122°27'612.7
2017-Oct-15 19:30N 47°44' W 122°26'611.7
2017-Oct-15 19:00N 47°38' W 122°26'4 8.1
2017-Oct-15 18:30N 47°34' W 122°26'612.2
2017-Oct-15 18:00N 47°28' W 122°24'611.4
2017-Oct-15 17:30N 47°22' W 122°22'611.2
2017-Oct-15 17:00N 47°18' W 122°27'2 3.9
2017-Oct-15 16:30N 47°17' W 122°24'0 0.8
2017-Oct-15 15:58N 47°17' W 122°23'0 0.0
2017-Oct-15 15:28N 47°17' W 122°23'0 0.0
2017-Oct-15 14:58N 47°17' W 122°23'0 0.0
2017-Oct-15 13:58N 47°17' W 122°23'0 0.0
2017-Oct-15 13:28N 47°17' W 122°23'0 0.0
2017-Oct-15 12:58N 47°17' W 122°23'0 0.0
2017-Oct-15 12:28N 47°17' W 122°23'0 0.0
2017-Oct-15 11:58N 47°17' W 122°23'0 0.0
2017-Oct-15 11:28N 47°17' W 122°23'0 0.0
2017-Oct-15 10:58N 47°17' W 122°23'0 0.0
2017-Oct-15 10:28N 47°17' W 122°23'0 0.0
2017-Oct-15 09:58N 47°17' W 122°23'0 0.0
2017-Oct-15 09:28N 47°17' W 122°23'0 0.0
2017-Oct-15 08:58N 47°17' W 122°23'0 0.0
2017-Oct-15 08:28N 47°17' W 122°23'0 0.0
2017-Oct-15 07:58N 47°17' W 122°23'0 0.0
2017-Oct-15 07:28N 47°17' W 122°23'0 0.0
2017-Oct-15 06:58N 47°17' W 122°23'0 0.0
2017-Oct-15 06:28N 47°17' W 122°23'0 0.0
2017-Oct-15 05:58N 47°17' W 122°23'0 0.0
2017-Oct-15 05:28N 47°17' W 122°23'0 0.0
2017-Oct-15 04:58N 47°17' W 122°23'0 0.0
2017-Oct-15 04:28N 47°17' W 122°23'0 0.0
2017-Oct-15 03:58N 47°17' W 122°23'0 0.0
2017-Oct-15 03:28N 47°17' W 122°23'0 0.0
2017-Oct-15 02:58N 47°17' W 122°23'0 0.0
2017-Oct-15 02:28N 47°17' W 122°23'0 0.0
2017-Oct-15 01:58N 47°17' W 122°23'0 0.0
2017-Oct-15 01:28N 47°17' W 122°23'0 0.0
2017-Oct-15 00:58N 47°17' W 122°23'0 0.0
2017-Oct-15 00:28N 47°17' W 122°23'0 0.0
2017-Oct-14 23:58N 47°17' W 122°23'0 0.0
2017-Oct-14 23:28N 47°17' W 122°23'0 0.0
2017-Oct-14 22:58N 47°17' W 122°23'0 0.0
2017-Oct-14 22:30N 47°17' W 122°23'1 1.7
2017-Oct-14 22:00N 47°17' W 122°24'3 5.2
2017-Oct-14 21:30N 47°18' W 122°28'611.8
2017-Oct-14 21:00N 47°23' W 122°22'612.4
2017-Oct-14 20:30N 47°29' W 122°25'612.3
2017-Oct-14 20:00N 47°35' W 122°26'3 5.5
2017-Oct-14 19:28N 47°36' W 122°22'0 0.2
2017-Oct-14 18:58N 47°36' W 122°22'0 0.1
2017-Oct-14 18:28N 47°36' W 122°22'0 0.0
2017-Oct-14 17:58N 47°36' W 122°22'0 0.1
2017-Oct-14 17:28N 47°36' W 122°22'0 0.1
2017-Oct-14 16:58N 47°36' W 122°22'0 0.0
2017-Oct-14 16:28N 47°36' W 122°22'0 0.1
2017-Oct-14 15:58N 47°36' W 122°22'0 0.1
2017-Oct-14 15:28N 47°36' W 122°22'0 0.0
2017-Oct-14 14:58N 47°36' W 122°22'0 0.0
2017-Oct-14 14:28N 47°36' W 122°22'0 0.0
2017-Oct-14 13:58N 47°36' W 122°22'0 0.1
2017-Oct-14 13:28N 47°36' W 122°22'0 0.0
2017-Oct-14 12:58N 47°36' W 122°22'0 0.0
2017-Oct-14 12:28N 47°36' W 122°22'0 0.0
2017-Oct-14 11:58N 47°36' W 122°22'1 1.6
2017-Oct-14 11:30N 47°36' W 122°23'5 9.6
2017-Oct-14 11:00N 47°40' W 122°28'611.7
2017-Oct-14 10:30N 47°46' W 122°27'611.8
2017-Oct-14 10:00N 47°52' W 122°29'510.8
2017-Oct-14 09:30N 47°56' W 122°32'511.0
2017-Oct-14 09:00N 48°01' W 122°38'611.3
2017-Oct-14 08:30N 48°06' W 122°40'511.0
2017-Oct-14 08:00N 48°10' W 122°46'611.6
2017-Oct-14 07:30N 48°11' W 122°54'612.4
2017-Oct-14 07:00N 48°12' W 123°04'612.4
2017-Oct-14 06:30N 48°12' W 123°13'612.4
2017-Oct-14 06:00N 48°10' W 123°22'611.4
2017-Oct-14 05:30N 48°12' W 123°30'611.5
2017-Oct-14 05:00N 48°13' W 123°39'612.3
2017-Oct-14 04:30N 48°13' W 123°48'612.7
2017-Oct-14 04:00N 48°14' W 123°58'612.7
2017-Oct-14 03:30N 48°16' W 124°06'612.6
2017-Oct-14 03:00N 48°19' W 124°15'612.0
2017-Oct-14 02:30N 48°22' W 124°23'611.5
2017-Oct-14 02:00N 48°24' W 124°31'911.4
2017-Oct-14 01:12N 48°28' W 124°43'312.6
2017-Oct-14 01:00N 48°28' W 124°47'712.2
2017-Oct-14 00:27N 48°29' W 124°57'510.6
2017-Oct-13 23:59N 48°25' W 125°03'612.1
2017-Oct-13 23:28N 48°20' W 125°07'78 9.9
2017-Oct-13 15:36N 47°02' W 124°57'211.2
2017-Oct-13 15:24N 46°60' W 124°56'411.0
2017-Oct-13 15:00N 46°56' W 124°53'611.0
2017-Oct-13 14:30N 46°51' W 124°50'710.8
2017-Oct-13 13:51N 46°45' W 124°45'411.1
2017-Oct-13 13:30N 46°41' W 124°43'811.0
2017-Oct-13 12:49N 46°34' W 124°39'411.1
2017-Oct-13 12:30N 46°31' W 124°37'610.9
2017-Oct-13 11:56N 46°25' W 124°34'510.8
2017-Oct-13 11:30N 46°21' W 124°32'510.7
2017-Oct-13 11:00N 46°17' W 124°25'611.9
2017-Oct-13 10:30N 46°14' W 124°18'611.4
2017-Oct-13 10:00N 46°12' W 124°11'810.5
2017-Oct-13 09:15N 46°15' W 123°60'415.3
2017-Oct-13 09:00N 46°12' W 123°56'611.2
2017-Oct-13 08:31N 46°12' W 123°48'914.2
2017-Oct-13 07:53N 46°15' W 123°36'513.8
2017-Oct-13 07:30N 46°16' W 123°28'612.6
2017-Oct-13 06:59N 46°10' W 123°25'612.4
2017-Oct-13 06:31N 46°09' W 123°17'712.4
2017-Oct-13 05:56N 46°11' W 123°06'512.6
2017-Oct-13 05:30N 46°08' W 123°00'611.8
2017-Oct-13 05:00N 46°04' W 122°53'611.8
2017-Oct-13 04:30N 45°59' W 122°50'611.5
2017-Oct-13 04:00N 45°53' W 122°48'611.8
2017-Oct-13 03:30N 45°47' W 122°47'612.6
2017-Oct-13 03:01N 45°41' W 122°46'5 8.3
2017-Oct-13 02:21N 45°36' W 122°47'0 0.0
2017-Oct-13 02:00N 45°36' W 122°47'0 0.0
2017-Oct-13 01:29N 45°36' W 122°47'0 0.0
2017-Oct-13 00:59N 45°36' W 122°47'0 0.0
2017-Oct-13 00:26N 45°36' W 122°47'0 0.0
2017-Oct-12 23:59N 45°36' W 122°47'0 0.0
2017-Oct-12 23:29N 45°36' W 122°47'0 0.0
2017-Oct-12 22:56N 45°36' W 122°47'0 0.0
2017-Oct-12 22:29N 45°36' W 122°47'0 0.0
2017-Oct-12 21:53N 45°36' W 122°47'0 0.0
2017-Oct-12 21:29N 45°36' W 122°47'0 0.0
2017-Oct-12 20:50N 45°36' W 122°47'0 0.0
2017-Oct-12 20:29N 45°36' W 122°47'0 0.0
2017-Oct-12 19:59N 45°36' W 122°47'0 0.0
2017-Oct-12 19:26N 45°36' W 122°47'0 0.0
2017-Oct-12 18:56N 45°36' W 122°47'0 0.0
2017-Oct-12 18:29N 45°36' W 122°47'0 0.0
2017-Oct-12 18:00N 45°36' W 122°47'0 0.0
2017-Oct-12 17:29N 45°36' W 122°47'0 0.0
2017-Oct-12 16:50N 45°36' W 122°47'0 0.0
2017-Oct-12 16:29N 45°36' W 122°47'0 0.0
2017-Oct-12 15:56N 45°36' W 122°47'0 0.0
2017-Oct-12 15:23N 45°36' W 122°47'0 0.0
2017-Oct-12 14:59N 45°36' W 122°47'0 0.0
2017-Oct-12 14:29N 45°36' W 122°47'0 0.0
2017-Oct-12 13:47N 45°36' W 122°47'0 0.0
2017-Oct-12 13:29N 45°36' W 122°47'0 0.0
2017-Oct-12 12:47N 45°36' W 122°47'0 0.0
2017-Oct-12 12:26N 45°36' W 122°47'0 0.0
2017-Oct-12 11:53N 45°36' W 122°47'0 0.6
2017-Oct-12 11:30N 45°35' W 122°46'2 3.7
2017-Oct-12 10:57N 45°34' W 122°44'0 0.0
2017-Oct-12 10:30N 45°34' W 122°44'0 0.0
2017-Oct-12 09:51N 45°34' W 122°44'0 0.0
2017-Oct-12 09:27N 45°34' W 122°44'0 0.0
2017-Oct-12 08:51N 45°34' W 122°44'0 0.0
2017-Oct-12 08:30N 45°34' W 122°44'0 0.0
2017-Oct-12 07:42N 45°34' W 122°44'0 0.0
2017-Oct-12 07:30N 45°34' W 122°44'0 0.0
2017-Oct-12 07:00N 45°34' W 122°44'0 0.0
2017-Oct-12 06:30N 45°34' W 122°44'0 0.0
2017-Oct-12 05:57N 45°34' W 122°44'0 0.0
2017-Oct-12 05:24N 45°34' W 122°44'0 0.0
2017-Oct-12 05:00N 45°34' W 122°44'0 0.0
2017-Oct-12 04:21N 45°34' W 122°44'0 0.0
2017-Oct-12 03:57N 45°34' W 122°44'0 0.0
2017-Oct-12 03:30N 45°34' W 122°44'0 0.0
2017-Oct-12 02:57N 45°34' W 122°44'0 0.0
2017-Oct-12 02:24N 45°34' W 122°44'0 0.0
2017-Oct-12 01:53N 45°34' W 122°44'0 0.0
2017-Oct-12 01:30N 45°34' W 122°44'0 0.0
2017-Oct-12 01:00N 45°34' W 122°44'0 0.0
2017-Oct-12 00:03N 45°34' W 122°44'0 0.0
2017-Oct-11 23:48N 45°34' W 122°44'0 0.0
2017-Oct-11 23:18N 45°34' W 122°44'0 0.0
2017-Oct-11 23:00N 45°34' W 122°44'0 0.0
2017-Oct-11 21:54N 45°34' W 122°44'0 0.0
2017-Oct-11 21:30N 45°34' W 122°44'0 0.0
2017-Oct-11 21:00N 45°34' W 122°44'0 0.3
2017-Oct-11 20:30N 45°34' W 122°44'1 1.3
2017-Oct-11 20:01N 45°35' W 122°45'4 8.2
2017-Oct-11 19:30N 45°38' W 122°47'5 9.4
2017-Oct-11 19:01N 45°43' W 122°46'510.4
2017-Oct-11 18:30N 45°48' W 122°47'510.5
2017-Oct-11 18:00N 45°53' W 122°48'510.9
2017-Oct-11 17:30N 45°59' W 122°50'510.5
2017-Oct-11 17:00N 46°04' W 122°53'164 9.6
2017-Oct-10 23:56N 48°16' W 125°14'512.0
2017-Oct-10 23:30N 48°21' W 125°11'711.8
2017-Oct-10 22:57N 48°26' W 125°06'510.9
2017-Oct-10 22:30N 48°30' W 125°01'510.3
2017-Oct-10 22:00N 48°31' W 124°54'510.6
2017-Oct-10 21:30N 48°31' W 124°46'611.4
2017-Oct-10 21:00N 48°29' W 124°37'611.8
2017-Oct-10 20:30N 48°27' W 124°29'611.8
2017-Oct-10 20:00N 48°24' W 124°21'5 9.2
2017-Oct-10 19:30N 48°23' W 124°15'510.3
2017-Oct-10 19:00N 48°20' W 124°08'712.9
2017-Oct-10 18:30N 48°18' W 123°59'713.0
2017-Oct-10 17:58N 48°16' W 123°48'712.8
2017-Oct-10 17:27N 48°15' W 123°39'511.9
2017-Oct-10 17:00N 48°14' W 123°31'611.8
2017-Oct-10 16:30N 48°11' W 123°23'4 8.0
2017-Oct-10 16:00N 48°11' W 123°17'711.7
2017-Oct-10 15:26N 48°15' W 123°09'511.4
2017-Oct-10 15:00N 48°18' W 123°03'1111.1
2017-Oct-10 14:00N 48°24' W 122°50'5 9.3
2017-Oct-10 13:30N 48°28' W 122°45'5 9.2
2017-Oct-10 13:00N 48°31' W 122°41'4 7.7
2017-Oct-10 12:30N 48°31' W 122°35'0 0.2
2017-Oct-10 11:57N 48°31' W 122°35'0 0.3
2017-Oct-10 11:30N 48°31' W 122°35'0 0.2
2017-Oct-10 11:00N 48°31' W 122°35'0 0.1
2017-Oct-10 10:31N 48°31' W 122°35'0 0.0
2017-Oct-10 10:00N 48°31' W 122°35'0 0.0
2017-Oct-10 09:31N 48°31' W 122°35'0 0.0
2017-Oct-10 09:01N 48°31' W 122°35'0 0.0
2017-Oct-10 08:27N 48°31' W 122°35'0 0.0
2017-Oct-10 08:01N 48°31' W 122°35'0 0.0
2017-Oct-10 07:27N 48°31' W 122°35'0 0.0
2017-Oct-10 07:01N 48°31' W 122°35'0 0.0
2017-Oct-10 06:28N 48°31' W 122°35'0 0.0
2017-Oct-10 06:00N 48°31' W 122°35'0 0.0
2017-Oct-10 05:30N 48°31' W 122°35'0 0.0
2017-Oct-10 04:57N 48°31' W 122°35'0 0.0
2017-Oct-10 04:31N 48°31' W 122°35'0 0.0
2017-Oct-10 04:01N 48°31' W 122°35'0 0.1
2017-Oct-10 03:30N 48°31' W 122°35'0 0.0
2017-Oct-10 03:00N 48°31' W 122°35'0 0.1
2017-Oct-10 02:30N 48°31' W 122°35'0 0.2
2017-Oct-10 02:00N 48°31' W 122°35'0 0.2
2017-Oct-10 01:30N 48°31' W 122°35'0 0.1
2017-Oct-10 01:00N 48°31' W 122°35'0 0.3
2017-Oct-10 00:30N 48°31' W 122°35'3 6.7
2017-Oct-10 00:01N 48°35' W 122°35'4 8.9
2017-Oct-09 23:30N 48°38' W 122°39'611.6
2017-Oct-09 23:00N 48°43' W 122°44'612.5
2017-Oct-09 22:31N 48°49' W 122°46'3 5.3
2017-Oct-09 21:59N 48°52' W 122°46'0 0.0
2017-Oct-09 17:20N 48°52' W 122°46'0 0.0
2017-Oct-09 16:56N 48°52' W 122°46'0 0.0
2017-Oct-09 08:02N 48°52' W 122°46'0 0.0
2017-Oct-09 07:44N 48°52' W 122°46'0 0.0
2017-Oct-09 07:20N 48°52' W 122°46'0 0.0
2017-Oct-09 06:50N 48°52' W 122°46'0 0.0
2017-Oct-09 06:26N 48°52' W 122°46'0 0.0
2017-Oct-09 05:56N 48°52' W 122°46'0 0.0
2017-Oct-09 05:26N 48°52' W 122°46'0 0.0
2017-Oct-09 04:56N 48°52' W 122°46'0 0.0
2017-Oct-09 04:20N 48°52' W 122°46'0 0.0
2017-Oct-09 02:53N 48°52' W 122°46'0 0.0
2017-Oct-09 02:29N 48°52' W 122°46'0 0.0
2017-Oct-09 01:44N 48°52' W 122°46'0 0.0
2017-Oct-09 01:26N 48°52' W 122°46'0 0.0
2017-Oct-09 00:50N 48°52' W 122°46'0 0.0
2017-Oct-09 00:29N 48°52' W 122°46'0 0.0
2017-Oct-08 23:59N 48°52' W 122°46'0 0.0
2017-Oct-08 23:26N 48°52' W 122°46'0 0.0
2017-Oct-08 22:56N 48°52' W 122°46'0 0.0
2017-Oct-08 22:14N 48°52' W 122°46'0 0.0
2017-Oct-08 21:56N 48°52' W 122°46'0 0.0
2017-Oct-08 21:17N 48°52' W 122°46'0 0.0
2017-Oct-08 19:08N 48°52' W 122°46'0 0.0
2017-Oct-08 18:56N 48°52' W 122°46'0 0.0
2017-Oct-08 14:50N 48°52' W 122°46'0 0.0
2017-Oct-08 14:20N 48°52' W 122°46'0 0.0
2017-Oct-08 12:50N 48°52' W 122°46'0 0.0
2017-Oct-08 11:11N 48°52' W 122°46'0 1.0
2017-Oct-08 11:00N 48°52' W 122°46'4 7.3
2017-Oct-08 10:30N 48°48' W 122°45'713.1
2017-Oct-08 10:00N 48°42' W 122°44'  

Dump ship's entire track history